Time;durP1;ratioP1;P1;durP2;ratioP2;P2;SDS_P1;SDS_P2;PMS_P1;PMS_P2;Temp;Humidity;BMP_temperature;BMP_pressure;BME280_temperature;BME280_humidity;BME280_pressure;Samples;Min_cycle;Max_cycle;Signal;HPM_P1;HPM_P2
2022/07/14 00:00:41;;;;;;;;;;;;;;;18.85;56.21;102003.56;5065342;28;19927;-87
2022/07/14 00:03:06;;;;;;;;;;;;;;;18.88;55.79;102005.19;5059407;28;19946;-87
2022/07/14 00:05:32;;;;;;;;;;;;;;;18.97;55.77;102001.13;5064816;28;19931;-87
2022/07/14 00:07:57;;;;;;;;;;;;;;;18.98;57.29;101998.38;5065695;28;20376;-87
2022/07/14 00:10:22;;;;;;;;;;;;;;;18.93;55.51;101994.22;5065210;28;19920;-87
2022/07/14 00:12:47;;;;;;;;;;;;;;;18.95;55.44;102009.25;5047609;28;19942;-87
2022/07/14 00:15:13;;;;;;;;;;;;;;;18.94;56.20;102012.03;5062437;28;19927;-87
2022/07/14 00:17:38;;;;;;;;;;;;;;;18.65;58.46;102002.91;5049313;28;20355;-87
2022/07/14 00:20:04;;;;;;;;;;;;;;;18.54;56.07;102000.81;5064948;28;20286;-87
2022/07/14 00:22:29;;;;;;;;;;;;;;;18.52;57.63;101987.53;5065701;28;19916;-87
2022/07/14 00:24:54;;;;;;;;;;;;;;;18.59;55.75;101977.31;5065906;28;19923;-87
2022/07/14 00:27:19;;;;;;;;;;;;;;;18.44;56.24;101973.69;5063108;28;19931;-87
2022/07/14 00:29:44;;;;;;;;;;;;;;;18.47;57.44;101976.22;5063990;28;19936;-87
2022/07/14 00:32:10;;;;;;;;;;;;;;;18.54;56.73;101961.50;5048362;28;20406;-87
2022/07/14 00:34:35;;;;;;;;;;;;;;;18.57;55.38;101968.53;5066211;28;19917;-87
2022/07/14 00:37:00;;;;;;;;;;;;;;;18.43;56.38;101976.47;5046613;28;20406;-87
2022/07/14 00:39:26;;;;;;;;;;;;;;;18.43;56.12;101990.72;5046679;28;19916;-87
2022/07/14 00:41:51;;;;;;;;;;;;;;;18.46;56.12;101995.88;5065814;28;19924;-87
2022/07/14 00:44:17;;;;;;;;;;;;;;;18.45;56.07;101990.63;5064696;28;19916;-87
2022/07/14 00:46:42;;;;;;;;;;;;;;;18.32;56.73;101996.63;5066002;28;19928;-87
2022/07/14 00:49:07;;;;;;;;;;;;;;;18.29;57.62;101999.50;5048637;28;19926;-87
2022/07/14 00:51:32;;;;;;;;;;;;;;;18.20;57.80;101986.59;5066778;28;20399;-87
2022/07/14 00:53:58;;;;;;;;;;;;;;;18.19;57.50;101982.22;5066639;28;19923;-87
2022/07/14 00:56:23;;;;;;;;;;;;;;;18.27;58.99;101977.28;5069825;28;20018;-87
2022/07/14 00:58:48;;;;;;;;;;;;;;;18.35;59.25;101985.75;5049716;28;19927;-87
2022/07/14 01:01:14;;;;;;;;;;;;;;;18.41;57.83;101989.06;5066881;28;19925;-87
2022/07/14 01:03:39;;;;;;;;;;;;;;;18.40;57.12;101996.22;5069010;28;19941;-87
2022/07/14 01:06:04;;;;;;;;;;;;;;;18.43;56.74;101992.53;5068940;28;19924;-86
2022/07/14 01:08:30;;;;;;;;;;;;;;;18.47;56.82;101994.09;5068203;28;19916;-87
2022/07/14 01:10:55;;;;;;;;;;;;;;;18.51;58.43;101988.50;5066752;28;19967;-86
2022/07/14 01:13:20;;;;;;;;;;;;;;;18.46;57.93;102001.22;5067952;28;19920;-87
2022/07/14 01:15:45;;;;;;;;;;;;;;;18.17;60.22;102004.63;5045043;28;19967;-87
2022/07/14 01:18:10;;;;;;;;;;;;;;;17.81;59.49;102003.84;5068099;28;20532;-87
2022/07/14 01:20:36;;;;;;;;;;;;;;;17.84;58.56;102002.78;5065849;28;20288;-87
2022/07/14 01:23:01;;;;;;;;;;;;;;;17.92;57.88;102005.09;5046391;28;20527;-87
2022/07/14 01:25:26;;;;;;;;;;;;;;;18.01;58.58;102015.31;5072681;28;20434;-87
2022/07/14 01:27:52;;;;;;;;;;;;;;;18.07;57.66;102015.81;5072944;28;20062;-87
2022/07/14 01:30:17;;;;;;;;;;;;;;;18.12;57.32;102020.06;5052333;28;19925;-87
2022/07/14 01:32:42;;;;;;;;;;;;;;;18.16;58.26;102021.66;5067639;28;20277;-87
2022/07/14 01:35:07;;;;;;;;;;;;;;;18.10;59.15;102014.81;5050749;28;20086;-87
2022/07/14 01:37:33;;;;;;;;;;;;;;;18.02;58.41;102009.84;5067255;28;19956;-86
2022/07/14 01:39:59;;;;;;;;;;;;;;;18.14;57.88;102007.47;5067919;28;19923;-86
2022/07/14 01:42:25;;;;;;;;;;;;;;;18.21;58.90;102012.41;5068234;28;19928;-87
2022/07/14 01:44:50;;;;;;;;;;;;;;;18.21;58.53;102012.41;5066248;28;20159;-86
2022/07/14 01:47:15;;;;;;;;;;;;;;;18.22;57.19;102010.59;5068165;28;19943;-86
2022/07/14 01:49:40;;;;;;;;;;;;;;;18.24;57.39;102011.41;5066791;28;19928;-86
2022/07/14 01:52:06;;;;;;;;;;;;;;;18.25;58.49;102002.41;5061637;28;19986;-87
2022/07/14 01:54:31;;;;;;;;;;;;;;;18.33;59.65;102002.88;5069543;28;19970;-86
2022/07/14 01:56:56;;;;;;;;;;;;;;;18.29;58.54;101999.50;5065700;28;19928;-86
2022/07/14 01:59:22;;;;;;;;;;;;;;;18.24;57.84;102003.38;5067697;28;20270;-86
2022/07/14 02:01:47;;;;;;;;;;;;;;;18.28;57.73;102002.25;5068935;28;19921;-87
2022/07/14 02:04:16;;;;;;;;;;;;;;;18.27;59.37;102011.22;5066644;28;19927;-86
2022/07/14 02:06:50;;;;;;;;;;;;;;;18.25;59.87;101995.25;5049778;28;20379;-86
2022/07/14 02:09:15;;;;;;;;;;;;;;;18.28;60.00;102008.47;5067994;28;19964;-86
2022/07/14 02:14:24;;;;;;;;;;;;;;;18.32;58.50;101998.44;5067613;28;20425;-86
2022/07/14 02:16:49;;;;;;;;;;;;;;;18.27;57.53;101995.16;5068494;28;19963;-86
2022/07/14 02:19:15;;;;;;;;;;;;;;;18.17;57.84;101991.25;5069006;28;19916;-86
2022/07/14 02:21:40;;;;;;;;;;;;;;;18.14;58.44;101989.63;5063432;28;19916;-86
2022/07/14 02:24:07;;;;;;;;;;;;;;;18.14;58.30;101994.97;5049128;28;19924;-86
2022/07/14 02:26:32;;;;;;;;;;;;;;;18.13;59.52;101995.03;5066083;28;19999;-86
2022/07/14 02:28:57;;;;;;;;;;;;;;;18.15;58.78;101998.50;5068452;28;20439;-86
2022/07/14 02:31:23;;;;;;;;;;;;;;;18.15;59.69;101995.84;5064033;28;19916;-86
2022/07/14 02:33:48;;;;;;;;;;;;;;;18.08;59.42;101997.97;5067203;28;20464;-86
2022/07/14 02:36:14;;;;;;;;;;;;;;;18.02;60.06;101999.16;5065706;28;19999;-86
2022/07/14 02:38:39;;;;;;;;;;;;;;;17.98;59.46;101996.72;5053481;28;19916;-86
2022/07/14 02:41:04;;;;;;;;;;;;;;;17.97;58.24;101993.19;5066348;28;20387;-86
2022/07/14 02:43:31;;;;;;;;;;;;;;;17.94;58.51;101987.13;5067964;28;19916;-86
2022/07/14 02:45:56;;;;;;;;;;;;;;;17.89;59.12;101984.69;5067066;28;19916;-86
2022/07/14 02:48:21;;;;;;;;;;;;;;;17.79;58.05;101978.97;5066823;28;20355;-86
2022/07/14 02:50:47;;;;;;;;;;;;;;;17.71;57.80;101977.59;5064902;28;20334;-86
2022/07/14 02:53:12;;;;;;;;;;;;;;;17.59;57.75;101977.28;5063994;28;20360;-86
2022/07/14 02:55:37;;;;;;;;;;;;;;;17.50;58.90;101977.75;5049745;28;20133;-86
2022/07/14 02:58:04;;;;;;;;;;;;;;;17.46;58.69;101978.84;5067159;28;19947;-86
2022/07/14 03:00:30;;;;;;;;;;;;;;;17.43;59.47;101975.47;5058452;28;19920;-86
2022/07/14 03:02:56;;;;;;;;;;;;;;;17.38;58.60;101970.34;5065305;28;19920;-86
2022/07/14 03:05:21;;;;;;;;;;;;;;;17.39;59.93;101972.06;5069535;28;19934;-86
2022/07/14 03:07:46;;;;;;;;;;;;;;;17.38;60.89;101969.50;5064523;28;19916;-86
2022/07/14 03:10:11;;;;;;;;;;;;;;;17.37;59.90;101975.78;5064883;28;19912;-86
2022/07/14 03:12:37;;;;;;;;;;;;;;;17.33;59.38;101969.72;5065617;28;20071;-86
2022/07/14 03:15:02;;;;;;;;;;;;;;;17.29;58.85;101971.69;5049797;28;20390;-86
2022/07/14 03:17:27;;;;;;;;;;;;;;;17.26;59.72;101960.28;5064878;28;19924;-86
2022/07/14 03:19:52;;;;;;;;;;;;;;;17.23;59.25;101958.63;5060789;28;19916;-86
2022/07/14 03:22:18;;;;;;;;;;;;;;;17.22;58.45;101958.72;5049264;28;20406;-86
2022/07/14 03:24:43;;;;;;;;;;;;;;;17.18;58.70;101952.66;5067002;28;19916;-86
2022/07/14 03:27:08;;;;;;;;;;;;;;;17.06;58.73;101950.56;5064402;28;19928;-86
2022/07/14 03:29:34;;;;;;;;;;;;;;;16.96;59.22;101947.50;5066126;28;19916;-86
2022/07/14 03:31:59;;;;;;;;;;;;;;;16.91;59.88;101946.88;5066837;28;19948;-86
2022/07/14 03:34:24;;;;;;;;;;;;;;;16.89;59.14;101940.75;5047877;28;20015;-86
2022/07/14 03:36:49;;;;;;;;;;;;;;;16.85;59.35;101943.63;5067318;28;19917;-86
2022/07/14 03:39:14;;;;;;;;;;;;;;;16.79;59.88;101942.13;5072480;28;19920;-86
2022/07/14 03:41:40;;;;;;;;;;;;;;;16.77;59.62;101944.88;5047652;28;19912;-86
2022/07/14 03:44:05;;;;;;;;;;;;;;;16.80;59.74;101950.06;5061546;28;19924;-86
2022/07/14 03:46:30;;;;;;;;;;;;;;;16.76;59.87;101951.16;5040995;28;20287;-86
2022/07/14 03:48:55;;;;;;;;;;;;;;;16.76;59.95;101945.81;5049012;28;19956;-86
2022/07/14 03:51:20;;;;;;;;;;;;;;;16.75;59.85;101951.22;5066599;28;20395;-86
2022/07/14 03:53:46;;;;;;;;;;;;;;;16.74;62.47;101953.03;5047917;28;19927;-86
2022/07/14 03:56:11;;;;;;;;;;;;;;;16.74;63.27;101965.50;5064407;28;20268;-86
2022/07/14 03:58:36;;;;;;;;;;;;;;;16.74;63.18;101969.06;5064787;28;19920;-86
2022/07/14 04:01:02;;;;;;;;;;;;;;;16.72;61.26;101959.38;5044283;28;20343;-86
2022/07/14 04:03:27;;;;;;;;;;;;;;;16.64;62.44;101966.84;5048709;28;19962;-86
2022/07/14 04:05:52;;;;;;;;;;;;;;;16.51;60.57;101969.25;5064047;28;19923;-86
2022/07/14 04:08:17;;;;;;;;;;;;;;;16.50;60.83;101971.03;5064559;28;20441;-86
2022/07/14 04:10:43;;;;;;;;;;;;;;;16.46;61.68;101973.91;5066731;28;19969;-86
2022/07/14 04:13:08;;;;;;;;;;;;;;;16.34;61.65;101972.69;5066025;28;19920;-86
2022/07/14 04:15:33;;;;;;;;;;;;;;;16.30;62.23;101971.09;5069196;28;20482;-86
2022/07/14 04:17:58;;;;;;;;;;;;;;;16.35;60.74;101968.22;5043550;28;20014;-86
2022/07/14 04:20:24;;;;;;;;;;;;;;;16.45;62.57;101964.19;5064045;28;20000;-86
2022/07/14 04:22:49;;;;;;;;;;;;;;;16.49;63.21;101963.97;5063749;28;19968;-86
2022/07/14 04:25:15;;;;;;;;;;;;;;;16.53;61.43;101962.03;5063772;28;20300;-86
2022/07/14 04:27:40;;;;;;;;;;;;;;;16.58;60.73;101965.34;5066437;28;20007;-86
2022/07/14 04:30:09;;;;;;;;;;;;;;;16.60;61.12;101958.16;5066784;28;19920;-86
2022/07/14 04:32:35;;;;;;;;;;;;;;;16.55;60.67;101961.03;5066771;28;19917;-86
2022/07/14 04:35:00;;;;;;;;;;;;;;;16.50;60.98;101967.50;5070052;28;19967;-86
2022/07/14 04:37:26;;;;;;;;;;;;;;;16.57;61.26;101960.94;5070515;28;20579;-86
2022/07/14 04:39:52;;;;;;;;;;;;;;;16.43;64.48;101958.94;5069626;28;20536;-86
2022/07/14 04:42:17;;;;;;;;;;;;;;;16.19;63.68;101962.75;5067731;28;19927;-86
2022/07/14 04:44:42;;;;;;;;;;;;;;;16.11;62.99;101963.06;5070167;28;19994;-86
2022/07/14 04:47:07;;;;;;;;;;;;;;;16.11;64.62;101964.88;5069205;28;20394;-86
2022/07/14 04:52:16;;;;;;;;;;;;;;;16.26;62.41;101961.50;5068931;28;19927;-86
2022/07/14 04:54:42;;;;;;;;;;;;;;;16.42;62.80;101964.34;5069546;28;20140;-85
2022/07/14 04:57:08;;;;;;;;;;;;;;;16.55;62.68;101953.03;5067129;28;20058;-85
2022/07/14 04:59:33;;;;;;;;;;;;;;;16.63;61.08;101963.31;5066750;28;20007;-86
2022/07/14 05:02:00;;;;;;;;;;;;;;;16.73;61.86;101963.78;5051664;28;19921;-86
2022/07/14 05:04:26;;;;;;;;;;;;;;;16.80;63.20;101967.91;5067429;28;19917;-86
2022/07/14 05:06:51;;;;;;;;;;;;;;;16.83;61.78;101978.41;5066110;28;19917;-86
2022/07/14 05:09:17;;;;;;;;;;;;;;;16.86;62.50;101970.25;5064557;28;20295;-86
2022/07/14 05:11:43;;;;;;;;;;;;;;;16.92;61.45;101979.78;5067766;28;19924;-86
2022/07/14 05:14:08;;;;;;;;;;;;;;;16.98;62.08;101984.84;5066825;28;19928;-86
2022/07/14 05:16:33;;;;;;;;;;;;;;;17.04;62.78;101987.22;5067452;28;20851;-86
2022/07/14 05:18:58;;;;;;;;;;;;;;;17.11;62.14;101985.94;5069524;28;20423;-85
2022/07/14 05:21:24;;;;;;;;;;;;;;;17.16;62.40;101986.63;5068073;28;19921;-86
2022/07/14 05:23:49;;;;;;;;;;;;;;;17.20;61.68;101974.81;5067480;28;19917;-85
2022/07/14 05:26:14;;;;;;;;;;;;;;;17.18;62.63;101975.84;5073474;28;19920;-85
2022/07/14 05:28:40;;;;;;;;;;;;;;;17.23;62.42;101980.00;5050739;28;19916;-86
2022/07/14 05:31:05;;;;;;;;;;;;;;;17.21;62.07;101981.91;5068838;28;19916;-86
2022/07/14 05:33:31;;;;;;;;;;;;;;;17.26;61.65;101979.00;5068661;28;20113;-85
2022/07/14 05:35:56;;;;;;;;;;;;;;;17.31;63.02;101979.63;5051282;28;19927;-85
2022/07/14 05:38:21;;;;;;;;;;;;;;;17.34;63.50;101968.78;5052303;28;19916;-86
2022/07/14 05:40:47;;;;;;;;;;;;;;;17.32;62.52;101973.34;5068180;28;19943;-86
2022/07/14 05:43:12;;;;;;;;;;;;;;;17.34;61.82;101977.66;5070435;28;20356;-86
2022/07/14 05:45:37;;;;;;;;;;;;;;;17.40;61.47;101976.50;5050582;28;20058;-86
2022/07/14 05:48:02;;;;;;;;;;;;;;;17.49;61.78;101981.38;5049274;28;19913;-85
2022/07/14 05:50:28;;;;;;;;;;;;;;;17.57;63.44;101981.84;5065035;28;20035;-85
2022/07/14 05:52:54;;;;;;;;;;;;;;;17.64;63.59;101978.88;5069728;28;20425;-86
2022/07/14 05:55:21;;;;;;;;;;;;;;;17.71;63.50;101985.59;5063485;28;19963;-85
2022/07/14 05:57:46;;;;;;;;;;;;;;;17.80;63.28;101987.84;5066682;28;19924;-85
2022/07/14 06:00:12;;;;;;;;;;;;;;;17.87;62.85;101985.72;5066917;28;20017;-85
2022/07/14 06:02:37;;;;;;;;;;;;;;;17.93;63.20;101975.56;5064206;28;19924;-85
2022/07/14 06:05:02;;;;;;;;;;;;;;;17.98;63.45;101969.97;5067659;28;20364;-85
2022/07/14 06:07:27;;;;;;;;;;;;;;;18.00;60.63;101968.06;5067033;28;19946;-85
2022/07/14 06:09:53;;;;;;;;;;;;;;;17.97;59.81;101970.91;5065271;28;19909;-85
2022/07/14 06:12:18;;;;;;;;;;;;;;;18.02;62.10;101971.53;5047518;28;19999;-85
2022/07/14 06:14:43;;;;;;;;;;;;;;;18.06;61.24;101967.75;5067268;28;19954;-86
2022/07/14 06:17:09;;;;;;;;;;;;;;;18.11;62.35;101976.38;5067152;28;19928;-85
2022/07/14 06:19:34;;;;;;;;;;;;;;;18.21;62.03;101980.28;5045518;28;19916;-85
2022/07/14 06:22:02;;;;;;;;;;;;;;;18.32;62.69;101979.72;5066727;28;19916;-86
2022/07/14 06:24:28;;;;;;;;;;;;;;;18.46;63.49;101970.91;5066796;28;20360;-85
2022/07/14 06:26:53;;;;;;;;;;;;;;;18.57;60.78;101964.03;5068575;28;19924;-85
2022/07/14 06:29:18;;;;;;;;;;;;;;;18.69;62.56;101959.81;5046154;28;19931;-85
2022/07/14 06:31:43;;;;;;;;;;;;;;;18.82;61.68;101968.03;5045687;28;20429;-85
2022/07/14 06:34:08;;;;;;;;;;;;;;;18.96;61.75;101976.16;5060698;28;19926;-85
2022/07/14 06:36:34;;;;;;;;;;;;;;;19.10;61.38;101967.31;5064872;28;19944;-85
2022/07/14 06:38:59;;;;;;;;;;;;;;;19.11;59.69;101972.56;5055727;28;19922;-85
2022/07/14 06:41:24;;;;;;;;;;;;;;;19.16;60.70;101982.16;5048382;28;19916;-85
2022/07/14 06:43:49;;;;;;;;;;;;;;;19.38;61.83;101974.59;5065957;28;19977;-85
2022/07/14 06:46:15;;;;;;;;;;;;;;;19.63;60.79;101987.44;5058075;28;19981;-85
2022/07/14 06:48:41;;;;;;;;;;;;;;;19.81;58.84;101985.47;5060419;28;20264;-85
2022/07/14 06:51:06;;;;;;;;;;;;;;;19.92;59.98;101980.34;5063566;28;20402;-85
2022/07/14 06:53:31;;;;;;;;;;;;;;;20.09;59.71;101981.97;5066597;28;20379;-86
2022/07/14 06:55:56;;;;;;;;;;;;;;;20.22;59.79;101976.69;5064849;28;19931;-85
2022/07/14 06:58:21;;;;;;;;;;;;;;;20.21;57.10;101975.84;5049042;28;20322;-85
2022/07/14 07:00:47;;;;;;;;;;;;;;;20.16;57.22;101974.41;5064497;28;19916;-85
2022/07/14 07:03:12;;;;;;;;;;;;;;;20.34;58.53;101968.75;5067463;28;20330;-85
2022/07/14 07:08:25;;;;;;;;;;;;;;;20.67;57.86;101966.72;5026587;28;19923;-85
2022/07/14 07:10:50;;;;;;;;;;;;;;;20.81;57.45;101970.22;5059980;28;19920;-84
2022/07/14 07:13:15;;;;;;;;;;;;;;;20.92;57.35;101964.13;5064619;28;20382;-85
2022/07/14 07:15:41;;;;;;;;;;;;;;;20.91;55.69;101969.63;5063889;28;20367;-85
2022/07/14 07:18:06;;;;;;;;;;;;;;;20.89;57.50;101972.41;5067976;28;19921;-85
2022/07/14 07:20:35;;;;;;;;;;;;;;;21.07;56.93;101973.00;5065391;28;19924;-84
2022/07/14 07:23:01;;;;;;;;;;;;;;;21.23;56.62;101964.78;5061384;28;20382;-85
2022/07/14 07:25:26;;;;;;;;;;;;;;;21.36;56.16;101969.28;5066016;28;19979;-84
2022/07/14 07:27:52;;;;;;;;;;;;;;;21.54;55.79;101966.28;5064688;28;19920;-85
2022/07/14 07:30:17;;;;;;;;;;;;;;;21.56;55.18;101969.75;5064734;28;19928;-85
2022/07/14 07:32:42;;;;;;;;;;;;;;;21.52;55.15;101965.53;5062808;28;19916;-85
2022/07/14 07:35:07;;;;;;;;;;;;;;;21.54;54.73;101968.97;5065019;28;19973;-85
2022/07/14 07:37:33;;;;;;;;;;;;;;;21.79;55.05;101960.94;5062464;28;20026;-85
2022/07/14 07:39:58;;;;;;;;;;;;;;;22.47;54.36;101966.94;5059000;28;19932;-85
2022/07/14 07:42:25;;;;;;;;;;;;;;;23.05;52.29;101954.59;5047391;28;20035;-84
2022/07/14 07:44:50;;;;;;;;;;;;;;;23.57;51.83;101946.06;5061633;28;19921;-85
2022/07/14 07:47:15;;;;;;;;;;;;;;;23.75;48.68;101943.81;5063710;28;19977;-85
2022/07/14 07:49:41;;;;;;;;;;;;;;;23.78;49.49;101938.19;5065154;28;20440;-85
2022/07/14 07:52:06;;;;;;;;;;;;;;;24.24;49.73;101931.81;5058753;28;19959;-85
2022/07/14 07:54:32;;;;;;;;;;;;;;;24.80;47.41;101945.25;5059197;28;19917;-85
2022/07/14 07:56:59;;;;;;;;;;;;;;;25.51;47.16;101936.63;5066793;28;20310;-85
2022/07/14 07:59:25;;;;;;;;;;;;;;;26.11;46.70;101948.53;5048834;28;19916;-85
2022/07/14 08:01:50;;;;;;;;;;;;;;;26.55;44.90;101947.31;5049306;28;19931;-85
2022/07/14 08:04:15;;;;;;;;;;;;;;;26.94;44.32;101947.38;5065637;28;19921;-86
2022/07/14 08:06:41;;;;;;;;;;;;;;;27.24;44.85;101934.72;5067251;28;20442;-85
2022/07/14 08:09:11;;;;;;;;;;;;;;;27.53;43.30;101927.38;5061411;28;20069;-86
2022/07/14 08:11:36;;;;;;;;;;;;;;;27.89;42.90;101930.34;5069987;28;19916;-86
2022/07/14 08:14:01;;;;;;;;;;;;;;;28.23;40.53;101933.34;5069970;28;19927;-86
2022/07/14 08:16:26;;;;;;;;;;;;;;;28.62;37.17;101931.28;5068853;28;19974;-85
2022/07/14 08:18:52;;;;;;;;;;;;;;;28.78;40.29;101918.88;5071130;28;20393;-86
2022/07/14 08:21:18;;;;;;;;;;;;;;;28.28;40.46;101920.16;5048655;28;20503;-86
2022/07/14 08:23:43;;;;;;;;;;;;;;;28.30;41.14;101909.09;5064554;28;19920;-86
2022/07/14 08:26:08;;;;;;;;;;;;;;;28.48;40.84;101918.19;5068430;28;20341;-86
2022/07/14 08:28:33;;;;;;;;;;;;;;;28.97;40.38;101908.72;5069750;28;19999;-86
2022/07/14 08:30:58;;;;;;;;;;;;;;;29.25;38.56;101913.22;5069301;28;19920;-86
2022/07/14 08:33:24;;;;;;;;;;;;;;;29.56;39.25;101905.47;5067468;28;19924;-86
2022/07/14 08:35:49;;;;;;;;;;;;;;;29.62;38.11;101902.97;5066261;28;19926;-86
2022/07/14 08:38:14;;;;;;;;;;;;;;;29.97;36.93;101910.13;5069590;28;19924;-86
2022/07/14 08:40:39;;;;;;;;;;;;;;;30.50;37.51;101910.91;5071018;28;19963;-86
2022/07/14 08:43:05;;;;;;;;;;;;;;;30.90;36.67;101910.16;5071059;28;20275;-86
2022/07/14 08:45:34;;;;;;;;;;;;;;;31.15;35.86;101913.75;5067568;28;19917;-86
2022/07/14 08:48:00;;;;;;;;;;;;;;;30.98;35.20;101910.16;5068753;28;20387;-86
2022/07/14 08:50:28;;;;;;;;;;;;;;;30.62;34.53;101911.44;5063998;28;19951;-86
2022/07/14 08:52:53;;;;;;;;;;;;;;;31.14;35.42;101905.72;5067864;28;20379;-86
2022/07/14 08:55:19;;;;;;;;;;;;;;;31.57;34.63;101903.66;5067392;28;19967;-86
2022/07/14 08:57:44;;;;;;;;;;;;;;;31.79;34.33;101902.06;5064651;28;20874;-86
2022/07/14 09:00:11;;;;;;;;;;;;;;;31.70;34.88;101902.09;5066495;28;19927;-86
2022/07/14 09:02:37;;;;;;;;;;;;;;;31.60;32.37;101906.06;5065545;28;20365;-86
2022/07/14 09:05:03;;;;;;;;;;;;;;;31.69;33.25;101905.00;5061979;28;20013;-86
2022/07/14 09:07:37;;;;;;;;;;;;;;;31.57;32.34;101898.19;5063336;28;19916;-86
2022/07/14 09:10:07;;;;;;;;;;;;;;;31.54;34.11;101898.56;5069769;28;20299;-86
2022/07/14 09:12:32;;;;;;;;;;;;;;;31.12;33.61;101903.16;5064734;28;20005;-87
2022/07/14 09:17:49;;;;;;;;;;;;;;;30.85;33.60;101903.50;5068639;28;19936;-86
2022/07/14 09:20:14;;;;;;;;;;;;;;;30.89;35.27;101908.44;5069178;28;19916;-86
2022/07/14 09:22:41;;;;;;;;;;;;;;;30.82;34.09;101895.63;5064144;28;19916;-86
2022/07/14 09:25:10;;;;;;;;;;;;;;;30.46;34.98;101902.19;5069765;28;20363;-86
2022/07/14 09:27:35;;;;;;;;;;;;;;;30.38;35.23;101907.63;5066075;28;19982;-86
2022/07/14 09:30:01;;;;;;;;;;;;;;;30.14;34.40;101905.66;5065597;28;19916;-86
2022/07/14 09:32:42;;;;;;;;;;;;;;;30.03;35.52;101900.47;5066303;28;19917;-86
2022/07/14 09:35:08;;;;;;;;;;;;;;;30.02;35.91;101898.75;5064959;28;19979;-87
2022/07/14 09:37:33;;;;;;;;;;;;;;;30.02;34.85;101911.53;5067171;28;20394;-86
2022/07/14 09:39:59;;;;;;;;;;;;;;;29.91;35.19;101896.31;5049583;28;19963;-86
2022/07/14 09:42:43;;;;;;;;;;;;;;;29.98;33.77;101900.97;5067680;28;20007;-86
2022/07/14 09:45:09;;;;;;;;;;;;;;;30.38;33.93;101901.31;5067081;28;19923;-86
2022/07/14 09:47:50;;;;;;;;;;;;;;;30.69;33.83;101896.97;5063623;28;19991;-86
2022/07/14 09:50:30;;;;;;;;;;;;;;;30.56;33.14;101904.78;5060830;28;19924;-87
2022/07/14 09:52:55;;;;;;;;;;;;;;;30.56;34.06;101895.72;5065847;28;20287;-86
2022/07/14 09:55:22;;;;;;;;;;;;;;;30.46;32.57;101901.34;5063287;28;20811;-86
2022/07/14 09:57:47;;;;;;;;;;;;;;;30.28;33.42;101897.88;5064412;28;20449;-86
2022/07/14 10:00:16;;;;;;;;;;;;;;;29.51;29.34;101896.88;5067518;28;19985;-87
2022/07/14 10:02:41;;;;;;;;;;;;;;;29.31;33.61;101901.69;5048367;28;20422;-86
2022/07/14 10:05:08;;;;;;;;;;;;;;;29.80;33.29;101897.47;5065459;28;20061;-86
2022/07/14 10:07:35;;;;;;;;;;;;;;;30.54;32.54;101903.22;5048130;28;19931;-86
2022/07/14 10:10:07;;;;;;;;;;;;;;;31.16;31.80;101906.41;5065030;28;19920;-87
2022/07/14 10:12:33;;;;;;;;;;;;;;;31.31;31.76;101892.94;5050321;28;20011;-87
2022/07/14 10:15:02;;;;;;;;;;;;;;;31.45;31.95;101893.09;5064094;28;20469;-86
2022/07/14 10:17:28;;;;;;;;;;;;;;;31.28;31.38;101909.69;5064611;28;20320;-86
2022/07/14 10:19:54;;;;;;;;;;;;;;;30.74;32.29;101905.53;5062554;28;19935;-86
2022/07/14 10:22:19;;;;;;;;;;;;;;;31.14;31.81;101908.44;5065111;28;19917;-87
2022/07/14 10:24:53;;;;;;;;;;;;;;;30.79;31.26;101905.03;5064133;28;20268;-87
2022/07/14 10:27:19;;;;;;;;;;;;;;;30.58;32.12;101905.44;5042525;28;20287;-88
2022/07/14 10:29:49;;;;;;;;;;;;;;;30.61;30.31;101896.94;5063201;28;19920;-88
2022/07/14 10:32:20;;;;;;;;;;;;;;;30.58;28.06;101896.41;5063010;28;20386;-87
2022/07/14 10:34:51;;;;;;;;;;;;;;;30.78;29.83;101902.44;5065479;28;19924;-87
2022/07/14 10:37:28;;;;;;;;;;;;;;;30.63;28.36;101899.50;5063966;28;20427;-87
2022/07/14 10:40:10;;;;;;;;;;;;;;;30.94;29.71;101902.47;5062017;28;19920;-87
2022/07/14 10:42:52;;;;;;;;;;;;;;;30.99;27.29;101908.28;5065375;28;19920;-87
2022/07/14 10:45:17;;;;;;;;;;;;;;;30.94;27.76;101908.78;5064952;28;20481;-87
2022/07/14 10:47:48;;;;;;;;;;;;;;;31.46;27.05;101904.88;5049693;28;19917;-87
2022/07/14 10:50:18;;;;;;;;;;;;;;;31.60;27.68;101904.16;5061328;28;19923;-87
2022/07/14 10:52:55;;;;;;;;;;;;;;;31.72;28.10;101901.94;5063933;28;19925;-87
2022/07/14 10:55:32;;;;;;;;;;;;;;;31.94;27.44;101905.81;5052883;28;19921;-87
2022/07/14 10:58:07;;;;;;;;;;;;;;;32.59;28.82;101901.94;5066069;28;19917;-87
2022/07/14 11:00:41;;;;;;;;;;;;;;;32.90;26.76;101900.06;5060727;28;20505;-87
2022/07/14 11:03:18;;;;;;;;;;;;;;;32.76;28.81;101900.81;5048080;28;20360;-88
2022/07/14 11:06:11;;;;;;;;;;;;;;;32.64;28.34;101903.13;5066065;28;19916;-88
2022/07/14 11:08:41;;;;;;;;;;;;;;;32.76;28.01;101895.34;5067619;28;19924;-88
2022/07/14 11:11:16;;;;;;;;;;;;;;;32.86;26.00;101893.19;5067558;28;20017;-88
2022/07/14 11:13:59;;;;;;;;;;;;;;;33.08;26.90;101902.50;5065966;28;19917;-88
2022/07/14 11:16:43;;;;;;;;;;;;;;;33.21;26.91;101904.63;5063707;28;19974;-88
2022/07/14 11:19:27;;;;;;;;;;;;;;;33.34;27.53;101895.72;5065209;28;19997;-87
2022/07/14 11:22:08;;;;;;;;;;;;;;;33.58;27.34;101902.91;5044042;28;20366;-88
2022/07/14 11:24:34;;;;;;;;;;;;;;;33.87;24.85;101900.19;5066046;28;20497;-89
2022/07/14 11:27:19;;;;;;;;;;;;;;;33.68;26.66;101896.13;5064055;28;19924;-88
2022/07/14 11:29:45;;;;;;;;;;;;;;;33.75;26.66;101891.56;5046410;28;20331;-88
2022/07/14 11:32:27;;;;;;;;;;;;;;;33.91;23.21;101896.03;5067984;28;19984;-88
2022/07/14 11:37:55;;;;;;;;;;;;;;;32.92;24.58;101894.38;5066266;28;19926;-88
2022/07/14 11:40:39;;;;;;;;;;;;;;;32.61;24.44;101891.69;5047783;28;19920;-88
2022/07/14 11:43:26;;;;;;;;;;;;;;;32.29;25.76;101893.53;5067195;28;19924;-87
2022/07/14 11:45:53;;;;;;;;;;;;;;;32.54;26.75;101891.53;5064217;28;19917;-88
2022/07/14 11:48:18;;;;;;;;;;;;;;;32.60;25.46;101896.31;5063712;28;19924;-88
2022/07/14 11:50:44;;;;;;;;;;;;;;;32.51;25.38;101891.91;5065042;28;19924;-88
2022/07/14 11:53:10;;;;;;;;;;;;;;;32.48;26.55;101900.47;5061117;28;19924;-88
2022/07/14 11:55:37;;;;;;;;;;;;;;;32.19;26.19;101887.44;5045283;28;19920;-89
2022/07/14 11:58:03;;;;;;;;;;;;;;;31.93;25.57;101898.66;5063798;28;19920;-88
2022/07/14 12:00:28;;;;;;;;;;;;;;;31.67;27.57;101896.16;5049392;28;19922;-88
2022/07/14 12:02:59;;;;;;;;;;;;;;;31.63;27.17;101897.50;5064054;28;20367;-88
2022/07/14 12:05:25;;;;;;;;;;;;;;;31.78;27.80;101900.38;5066934;28;19916;-87
2022/07/14 12:07:53;;;;;;;;;;;;;;;31.79;27.59;101900.19;5063451;28;19916;-88
2022/07/14 12:10:49;;;;;;;;;;;;;;;31.67;27.19;101894.25;5066669;28;19916;-88
2022/07/14 12:13:14;;;;;;;;;;;;;;;31.85;27.13;101899.53;5046989;28;20031;-87
2022/07/14 12:15:40;;;;;;;;;;;;;;;32.53;26.41;101895.31;5048778;28;20153;-88
2022/07/14 12:18:06;;;;;;;;;;;;;;;32.73;26.49;101895.69;5063800;28;20333;-88
2022/07/14 12:20:44;;;;;;;;;;;;;;;32.88;25.99;101893.88;5066810;28;19947;-88
2022/07/14 12:23:10;;;;;;;;;;;;;;;33.00;25.22;101889.69;5063131;28;19936;-88
2022/07/14 12:25:46;;;;;;;;;;;;;;;33.22;25.77;101890.72;5064939;28;20017;-88
2022/07/14 12:28:12;;;;;;;;;;;;;;;33.53;24.59;101894.38;5066831;28;20379;-88
2022/07/14 12:30:51;;;;;;;;;;;;;;;33.75;25.86;101887.97;5065937;28;19912;-89
2022/07/14 12:33:20;;;;;;;;;;;;;;;33.70;25.87;101887.69;5063449;28;19986;-88
2022/07/14 12:35:46;;;;;;;;;;;;;;;33.77;24.94;101883.16;5066131;28;20787;-88
2022/07/14 12:38:12;;;;;;;;;;;;;;;33.86;25.88;101887.50;5063399;28;20387;-88
2022/07/14 12:40:38;;;;;;;;;;;;;;;33.98;25.82;101886.00;5061739;28;19924;-89
2022/07/14 12:43:04;;;;;;;;;;;;;;;33.72;25.40;101877.41;5063388;28;19947;-88
2022/07/14 12:45:30;;;;;;;;;;;;;;;33.40;25.88;101882.16;5064703;28;19921;-88
2022/07/14 12:47:56;;;;;;;;;;;;;;;33.56;24.33;101880.31;5067505;28;19916;-89